Hudsonville, MI (49426)

11:49 PM EST on February 11, 2016 (GMT -0500)
Jamestown | | Change Station
CLOSE
Current Station
Personal Weather Station
Location: Jamestown, MI
Elevation: 740 ft
Nearby Weather Stations
Active Advisory: Winter Weather Advisory Active Notice: Local Storm Report

Elev 740 ft 42.84 °N, 85.83 °W | Updated 2 minutes ago

Overcast
Overcast
16.1 °F
Feels Like 8 °F
N
5.0
Wind Variable Wind from SW
Gusts 5.0 mph

Today
High -- | Low -- °F
--% Chance of Precip.
Yesterday
High -- | Low -- °F
Precip. -- in
Pressure 30.27 in
Visibility 10.0 miles
Clouds Overcast 4000 ft
Windchill 8 °F
Dew Point 9 °F
Humidity 74%
Rainfall 0.00 in
Snow Depth Not available.
7:46 AM 6:09 PM
Waxing Crescent, 17% visible
METAR KBIV 120353Z AUTO 00000KT 10SM OVC040 M09/M14 A3023 RMK AO2 SLP251 T10941139
Pressure 30.27 in
Visibility 10.0 miles
Clouds Overcast 4000 ft
Windchill 8 °F
Dew Point 9 °F
Humidity 74%
Rainfall 0.00 in
Snow Depth Not available.
7:46 AM 6:09 PM
Waxing Crescent, 17% visible
METAR KBIV 120353Z AUTO 00000KT 10SM OVC040 M09/M14 A3023 RMK AO2 SLP251 T10941139

10-Day Weather Forecast

Almanac

Astronomy

Feb. 11, 2016 Rise Set
Actual Time
Civil Twilight
Nautical Twilight
Astronomical Twilight
Moon
Length of Visible Light
Length of Day
Tomorrow will be .
, % of the Moon is Illuminated

Today's Extremes

State Highs State Lows

Community

WunderPhotos

Upload Photos

1,892,268 photos uploaded!

WunderBlog® & News

Nearby

Air Quality

  Air Quality AQ Index Pollutant
Not available.

Snow Depth

Station Depth Elevation

Earthquake Activity

City Distance Mag. Time & Date
Minimum magnitude displayed is 2.5.

Coastal Water Temperatures

Place Temperature

Stations

Nearby Weather Stations

Station Location Temp. Windchill Dew Point Humidity Wind Precip. Elev Updated Type
                   

Watches & Warnings

Winter Weather Advisory
Issued: 9:27 PM EST Feb. 11, 2016 – National Weather Service

... Winter Weather Advisory remains in effect from 7 am Friday to
4 PM EST Saturday...

Hazardous weather...

* snow begins around the Friday morning commute.

* Wind and snow increase sharply later Friday into Saturday.

* Total snow 4 to 6 inches... locally higher amounts possible.

* Visibility sometimes down to a few car lengths.

* Dangerous wind chills beginning Friday evening.

Impacts...

* hazardous travel from mid morning Friday through Saturday
   evening.

* Accidents and slideoffs due to slippery roads and low
   visibilities.

* Closures and cancellations

* time to frostbite under 30 minutes starting Friday evening

Precautionary/preparedness actions...

* the Michigan Department of Transportation reminds motorists
   to adjust speeds based on the conditions... and to take it
   slow in ice and snow.